UAE70M OMDB-EGLL
Flight info
| Callsign | UAE70M |
|---|---|
| Flight time | N/A |
| Altitude | 34000 |
| Route | SENPA N571 ALPOB L768 ULADA Q143 MEDGO N697 LOSEL/N0494F360 N697 HIL A788 HLF L604 WEJ L677 CVO L617 NOZ L551 ANTAR UN133 KPC DCT FSK/N0478F380 DCT DISOR DCT LONTA UL608 DOLEV DCT BOSNA DCT MARIL DCT OKSIG DCT KUSIB DCT GORPA DCT DOL DCT NIPEL DCT MODSA DCT BABEG DCT LIRSU DCT ARCKY DCT BUB L608 LOGAN |
| Aircraft | B77W/H-SDE1E2E3FGHIJ2J3J4J5M1RWXY/LB1D1 |
Departure
| Time | 2026-05-05 15:02 |
|---|---|
| Airport | Dubai International Airport (OMDB) |
Arrival
| Time | N/A |
|---|---|
| Airport | London Heathrow Airport (EGLL) |
| Time | Latitude | Longitude | Altitude | Speed | Heading |
|---|---|---|---|---|---|
| 2026-05-05 14:14 | 25.25190 | 55.35312 | 27 ft | 0 kts | 29° |
| 2026-05-05 14:44 | 25.25181 | 55.35306 | 26 ft | 4 kts | 38° |
| 2026-05-05 14:44 | 25.25162 | 55.35291 | 27 ft | 4 kts | 23° |
| 2026-05-05 14:44 | 25.25141 | 55.35290 | 25 ft | 4 kts | 316° |
| 2026-05-05 14:45 | 25.25125 | 55.35313 | 24 ft | 2 kts | 306° |
| 2026-05-05 14:45 | 25.25124 | 55.35315 | 27 ft | 0 kts | 306° |
| 2026-05-05 14:50 | 25.25154 | 55.35269 | 25 ft | 12 kts | 306° |
| 2026-05-05 14:50 | 25.25202 | 55.35193 | 27 ft | 12 kts | 304° |
| 2026-05-05 14:50 | 25.25248 | 55.35115 | 27 ft | 12 kts | 302° |
| 2026-05-05 14:50 | 25.25290 | 55.35034 | 27 ft | 12 kts | 299° |
| 2026-05-05 14:51 | 25.25335 | 55.34954 | 27 ft | 12 kts | 304° |
| 2026-05-05 14:51 | 25.25362 | 55.34916 | 27 ft | 2 kts | 313° |
| 2026-05-05 14:52 | 25.25366 | 55.34911 | 27 ft | 2 kts | 314° |
| 2026-05-05 14:52 | 25.25369 | 55.34909 | 27 ft | 4 kts | 323° |
| 2026-05-05 14:52 | 25.25388 | 55.34900 | 27 ft | 9 kts | 337° |
| 2026-05-05 14:52 | 25.25460 | 55.34902 | 27 ft | 11 kts | 19° |
| 2026-05-05 14:53 | 25.25526 | 55.34942 | 27 ft | 11 kts | 30° |
| 2026-05-05 14:53 | 25.25592 | 55.34984 | 27 ft | 11 kts | 30° |
| 2026-05-05 14:53 | 25.25655 | 55.35027 | 27 ft | 11 kts | 33° |
| 2026-05-05 14:53 | 25.25718 | 55.35073 | 27 ft | 11 kts | 38° |
| 2026-05-05 14:54 | 25.25725 | 55.35147 | 27 ft | 10 kts | 108° |
| 2026-05-05 14:54 | 25.25757 | 55.35210 | 27 ft | 10 kts | 32° |
| 2026-05-05 14:54 | 25.25819 | 55.35252 | 27 ft | 10 kts | 31° |
| 2026-05-05 14:54 | 25.25881 | 55.35294 | 27 ft | 10 kts | 33° |
| 2026-05-05 14:55 | 25.25941 | 55.35339 | 27 ft | 10 kts | 34° |
| 2026-05-05 14:55 | 25.25992 | 55.35395 | 27 ft | 10 kts | 64° |
| 2026-05-05 14:55 | 25.25999 | 55.35474 | 27 ft | 10 kts | 99° |
| 2026-05-05 14:55 | 25.25976 | 55.35549 | 27 ft | 10 kts | 112° |
| 2026-05-05 14:56 | 25.25941 | 55.35621 | 27 ft | 12 kts | 122° |
| 2026-05-05 14:56 | 25.25876 | 55.35737 | 27 ft | 22 kts | 122° |
| 2026-05-05 14:56 | 25.25795 | 55.35878 | 27 ft | 21 kts | 122° |
| 2026-05-05 14:56 | 25.25722 | 55.36009 | 27 ft | 20 kts | 123° |
| 2026-05-05 14:57 | 25.25649 | 55.36139 | 27 ft | 20 kts | 121° |
| 2026-05-05 14:57 | 25.25577 | 55.36270 | 27 ft | 20 kts | 121° |
| 2026-05-05 14:57 | 25.25507 | 55.36399 | 27 ft | 20 kts | 121° |
| 2026-05-05 14:57 | 25.25436 | 55.36529 | 27 ft | 20 kts | 122° |
| 2026-05-05 14:58 | 25.25362 | 55.36659 | 27 ft | 20 kts | 122° |
| 2026-05-05 14:58 | 25.25290 | 55.36789 | 27 ft | 20 kts | 121° |
| 2026-05-05 14:58 | 25.25217 | 55.36919 | 27 ft | 20 kts | 122° |
| 2026-05-05 14:58 | 25.25146 | 55.37050 | 27 ft | 20 kts | 121° |
| 2026-05-05 14:59 | 25.25075 | 55.37178 | 27 ft | 20 kts | 120° |
| 2026-05-05 14:59 | 25.25003 | 55.37309 | 27 ft | 20 kts | 122° |
| 2026-05-05 14:59 | 25.24930 | 55.37438 | 27 ft | 20 kts | 122° |
| 2026-05-05 14:59 | 25.24859 | 55.37569 | 27 ft | 20 kts | 120° |
| 2026-05-05 15:00 | 25.24789 | 55.37700 | 27 ft | 20 kts | 121° |
| 2026-05-05 15:00 | 25.24741 | 55.37787 | 27 ft | 20 kts | 121° |
| 2026-05-05 15:00 | 25.24676 | 55.37906 | 27 ft | 9 kts | 112° |
| 2026-05-05 15:00 | 25.24690 | 55.37967 | 27 ft | 9 kts | 40° |
| 2026-05-05 15:01 | 25.24743 | 55.38004 | 27 ft | 9 kts | 32° |
| 2026-05-05 15:01 | 25.24801 | 55.38019 | 27 ft | 9 kts | 332° |
| 2026-05-05 15:01 | 25.24922 | 55.37815 | 27 ft | 74 kts | 301° |
| 2026-05-05 15:01 | 25.25378 | 55.36998 | 29 ft | 175 kts | 301° |
| 2026-05-05 15:02 | 25.26062 | 55.35708 | 806 ft | 204 kts | 300° |
| 2026-05-05 15:02 | 25.26710 | 55.34237 | 2014 ft | 220 kts | 294° |
| 2026-05-05 15:02 | 25.27274 | 55.32631 | 3296 ft | 230 kts | 294° |
| 2026-05-05 15:02 | 25.28045 | 55.30930 | 4191 ft | 252 kts | 301° |
| 2026-05-05 15:03 | 25.28934 | 55.29268 | 5050 ft | 250 kts | 301° |
| 2026-05-05 15:03 | 25.29841 | 55.27598 | 5416 ft | 257 kts | 301° |
| 2026-05-05 15:03 | 25.30766 | 55.25902 | 5963 ft | 257 kts | 301° |
| 2026-05-05 15:03 | 25.31678 | 55.24236 | 6576 ft | 259 kts | 300° |
| 2026-05-05 15:04 | 25.32632 | 55.22492 | 7189 ft | 267 kts | 301° |
| 2026-05-05 15:04 | 25.33389 | 55.20579 | 7521 ft | 281 kts | 276° |
| 2026-05-05 15:04 | 25.33280 | 55.18400 | 7992 ft | 288 kts | 260° |
| 2026-05-05 15:04 | 25.32988 | 55.16208 | 8647 ft | 295 kts | 263° |
| 2026-05-05 15:05 | 25.32649 | 55.11628 | 10239 ft | 299 kts | 267° |
| 2026-05-05 15:05 | 25.32578 | 55.09316 | 10974 ft | 302 kts | 269° |
| 2026-05-05 15:05 | 25.32547 | 55.07011 | 11680 ft | 305 kts | 270° |
| 2026-05-05 15:06 | 25.32544 | 55.04646 | 12423 ft | 309 kts | 270° |
| 2026-05-05 15:06 | 25.32558 | 55.02264 | 13166 ft | 312 kts | 270° |
| 2026-05-05 15:06 | 25.32585 | 54.99852 | 13871 ft | 315 kts | 271° |
| 2026-05-05 15:06 | 25.32618 | 54.97423 | 14563 ft | 317 kts | 271° |
| 2026-05-05 15:07 | 25.32655 | 54.94987 | 15159 ft | 326 kts | 271° |
| 2026-05-05 15:07 | 25.32697 | 54.92390 | 15383 ft | 348 kts | 271° |
| 2026-05-05 15:07 | 25.32742 | 54.89635 | 15582 ft | 369 kts | 271° |
| 2026-05-05 15:07 | 25.32791 | 54.86721 | 15792 ft | 387 kts | 271° |
| 2026-05-05 15:08 | 25.32840 | 54.83732 | 16191 ft | 399 kts | 271° |
| 2026-05-05 15:08 | 25.32890 | 54.80625 | 16612 ft | 410 kts | 271° |
| 2026-05-05 15:08 | 25.32941 | 54.77439 | 17028 ft | 419 kts | 271° |
| 2026-05-05 15:08 | 25.32992 | 54.74176 | 17459 ft | 428 kts | 271° |
| 2026-05-05 15:09 | 25.33044 | 54.70869 | 17873 ft | 430 kts | 271° |
| 2026-05-05 15:09 | 25.33094 | 54.67535 | 18257 ft | 437 kts | 271° |
| 2026-05-05 15:09 | 25.33145 | 54.64167 | 18617 ft | 440 kts | 271° |
| 2026-05-05 15:09 | 25.33197 | 54.60754 | 18995 ft | 445 kts | 271° |
| 2026-05-05 15:10 | 25.33250 | 54.57370 | 19364 ft | 447 kts | 272° |
| 2026-05-05 15:10 | 25.33512 | 54.53930 | 19726 ft | 450 kts | 278° |
| 2026-05-05 15:10 | 25.34083 | 54.50519 | 20113 ft | 452 kts | 284° |
| 2026-05-05 15:10 | 25.34649 | 54.48298 | 20361 ft | 453 kts | 287° |
| 2026-05-05 15:11 | 25.35590 | 54.44960 | 20755 ft | 455 kts | 287° |
| 2026-05-05 15:11 | 25.36530 | 54.41609 | 21144 ft | 456 kts | 287° |
| 2026-05-05 15:11 | 25.37458 | 54.38246 | 21546 ft | 458 kts | 287° |
| 2026-05-05 15:11 | 25.38377 | 54.34866 | 21942 ft | 460 kts | 287° |
| 2026-05-05 15:12 | 25.39297 | 54.31458 | 22356 ft | 462 kts | 286° |
| 2026-05-05 15:12 | 25.40206 | 54.28083 | 22769 ft | 464 kts | 286° |
| 2026-05-05 15:12 | 25.41095 | 54.24634 | 23186 ft | 467 kts | 285° |
| 2026-05-05 15:12 | 25.41946 | 54.21158 | 23567 ft | 468 kts | 284° |
| 2026-05-05 15:13 | 25.42788 | 54.17677 | 23915 ft | 466 kts | 284° |
| 2026-05-05 15:13 | 25.43619 | 54.14278 | 24254 ft | 459 kts | 284° |
| 2026-05-05 15:13 | 25.44456 | 54.10879 | 24603 ft | 455 kts | 284° |
| 2026-05-05 15:13 | 25.45286 | 54.07506 | 24962 ft | 453 kts | 284° |
| 2026-05-05 15:14 | 25.46108 | 54.04141 | 25328 ft | 452 kts | 284° |
| 2026-05-05 15:14 | 25.46926 | 54.00780 | 25699 ft | 450 kts | 284° |
| 2026-05-05 15:14 | 25.47740 | 53.97428 | 26068 ft | 449 kts | 284° |
| 2026-05-05 15:14 | 25.48540 | 53.94135 | 26450 ft | 447 kts | 284° |
| 2026-05-05 15:15 | 25.49344 | 53.90820 | 26830 ft | 445 kts | 284° |
| 2026-05-05 15:15 | 25.50147 | 53.87511 | 27217 ft | 443 kts | 283° |
| 2026-05-05 15:15 | 25.50946 | 53.84209 | 27611 ft | 441 kts | 283° |
| 2026-05-05 15:15 | 25.51731 | 53.80970 | 28004 ft | 439 kts | 283° |
| 2026-05-05 15:16 | 25.52525 | 53.77687 | 28402 ft | 436 kts | 283° |
| 2026-05-05 15:16 | 25.53309 | 53.74439 | 28823 ft | 434 kts | 283° |
| 2026-05-05 15:16 | 25.54068 | 53.71258 | 29218 ft | 431 kts | 283° |
| 2026-05-05 15:16 | 25.54828 | 53.68047 | 29647 ft | 428 kts | 283° |
| 2026-05-05 15:17 | 25.55582 | 53.64856 | 30048 ft | 425 kts | 282° |
| 2026-05-05 15:17 | 25.56328 | 53.61692 | 30404 ft | 423 kts | 282° |
| 2026-05-05 15:17 | 25.57069 | 53.58551 | 30766 ft | 420 kts | 282° |
| 2026-05-05 15:17 | 25.57795 | 53.55474 | 31123 ft | 417 kts | 282° |
| 2026-05-05 15:18 | 25.58527 | 53.52367 | 31495 ft | 415 kts | 282° |
| 2026-05-05 15:18 | 25.59254 | 53.49281 | 31866 ft | 412 kts | 282° |
| 2026-05-05 15:18 | 25.59976 | 53.46214 | 32248 ft | 410 kts | 282° |
| 2026-05-05 15:18 | 25.60694 | 53.43162 | 32635 ft | 408 kts | 282° |
| 2026-05-05 15:19 | 25.61412 | 53.40105 | 33030 ft | 406 kts | 282° |
| 2026-05-05 15:19 | 25.62118 | 53.37116 | 33424 ft | 405 kts | 282° |
| 2026-05-05 15:19 | 25.62831 | 53.34107 | 33831 ft | 403 kts | 281° |
| 2026-05-05 15:19 | 25.63542 | 53.31106 | 34167 ft | 400 kts | 281° |
| 2026-05-05 15:20 | 25.64246 | 53.28126 | 34517 ft | 398 kts | 281° |
| 2026-05-05 15:20 | 25.64946 | 53.25161 | 34874 ft | 395 kts | 281° |
| 2026-05-05 15:20 | 25.65639 | 53.22222 | 35224 ft | 392 kts | 281° |
| 2026-05-05 15:20 | 25.66326 | 53.19302 | 35595 ft | 389 kts | 281° |
| 2026-05-05 15:21 | 25.66996 | 53.16454 | 35970 ft | 384 kts | 281° |
| 2026-05-05 15:21 | 25.67665 | 53.13606 | 36333 ft | 380 kts | 281° |
| 2026-05-05 15:21 | 25.68328 | 53.10784 | 36712 ft | 375 kts | 281° |
| 2026-05-05 15:21 | 25.68979 | 53.08009 | 37088 ft | 370 kts | 281° |
| 2026-05-05 15:22 | 25.69622 | 53.05267 | 37423 ft | 365 kts | 281° |
| 2026-05-05 15:22 | 25.71293 | 52.99824 | 37196 ft | 386 kts | 290° |
| 2026-05-05 15:22 | 25.72523 | 52.97118 | 37002 ft | 398 kts | 292° |
| 2026-05-05 15:23 | 25.73818 | 52.94401 | 36878 ft | 407 kts | 293° |
| 2026-05-05 15:23 | 25.75147 | 52.91628 | 37149 ft | 405 kts | 293° |
| 2026-05-05 15:23 | 25.76471 | 52.88860 | 37398 ft | 405 kts | 292° |
| 2026-05-05 15:23 | 25.77774 | 52.86123 | 37650 ft | 405 kts | 292° |
| 2026-05-05 15:24 | 25.79096 | 52.83330 | 37696 ft | 409 kts | 292° |
| 2026-05-05 15:24 | 25.81763 | 52.77671 | 37043 ft | 427 kts | 292° |
| 2026-05-05 15:24 | 25.83172 | 52.74671 | 36152 ft | 448 kts | 293° |
| 2026-05-05 15:25 | 25.84630 | 52.71577 | 35934 ft | 449 kts | 293° |
| 2026-05-05 15:25 | 25.86078 | 52.68530 | 36291 ft | 441 kts | 293° |
| 2026-05-05 15:25 | 25.87484 | 52.65547 | 36753 ft | 429 kts | 292° |
| 2026-05-05 15:25 | 25.88840 | 52.62658 | 36854 ft | 429 kts | 292° |
| 2026-05-05 15:26 | 25.90228 | 52.59681 | 36497 ft | 436 kts | 292° |
| 2026-05-05 15:26 | 25.91582 | 52.56669 | 36247 ft | 442 kts | 291° |
| 2026-05-05 15:26 | 25.92942 | 52.53582 | 35979 ft | 448 kts | 291° |
| 2026-05-05 15:26 | 25.94317 | 52.50452 | 35720 ft | 454 kts | 291° |
| 2026-05-05 15:27 | 25.95714 | 52.47287 | 35552 ft | 458 kts | 291° |
| 2026-05-05 15:27 | 25.97128 | 52.44095 | 35366 ft | 462 kts | 291° |
| 2026-05-05 15:27 | 25.98557 | 52.40873 | 35237 ft | 464 kts | 291° |
| 2026-05-05 15:27 | 25.99993 | 52.37638 | 35099 ft | 466 kts | 291° |
| 2026-05-05 15:28 | 26.01428 | 52.34420 | 35151 ft | 464 kts | 291° |
| 2026-05-05 15:28 | 26.04265 | 52.28052 | 35141 ft | 461 kts | 291° |
| 2026-05-05 15:29 | 26.07106 | 52.21660 | 35129 ft | 459 kts | 291° |
| 2026-05-05 15:29 | 26.09922 | 52.15309 | 35104 ft | 458 kts | 291° |
| 2026-05-05 15:29 | 26.11323 | 52.12142 | 34926 ft | 462 kts | 291° |
| 2026-05-05 15:30 | 26.12742 | 52.08935 | 35005 ft | 460 kts | 291° |
| 2026-05-05 15:30 | 26.14155 | 52.05746 | 35224 ft | 455 kts | 291° |
| 2026-05-05 15:30 | 26.15547 | 52.02598 | 35386 ft | 451 kts | 291° |
| 2026-05-05 15:30 | 26.16928 | 51.99474 | 35564 ft | 447 kts | 291° |
| 2026-05-05 15:31 | 26.18296 | 51.96414 | 35661 ft | 446 kts | 291° |
| 2026-05-05 15:31 | 26.21077 | 51.90243 | 35750 ft | 444 kts | 291° |
| 2026-05-05 15:32 | 26.23808 | 51.84054 | 35785 ft | 444 kts | 290° |
| 2026-05-05 15:32 | 26.26548 | 51.77870 | 35768 ft | 445 kts | 291° |
| 2026-05-05 15:33 | 26.29292 | 51.71730 | 35765 ft | 445 kts | 291° |
| 2026-05-05 15:33 | 26.32056 | 51.65531 | 35762 ft | 445 kts | 291° |
| 2026-05-05 15:34 | 26.34813 | 51.59331 | 35757 ft | 445 kts | 291° |
| 2026-05-05 15:34 | 26.37532 | 51.53168 | 35760 ft | 444 kts | 289° |
| 2026-05-05 15:35 | 26.39694 | 51.46742 | 35763 ft | 440 kts | 284° |
| 2026-05-05 15:35 | 26.41707 | 51.40329 | 35755 ft | 441 kts | 284° |
| 2026-05-05 15:36 | 26.43786 | 51.33854 | 35761 ft | 441 kts | 285° |
| 2026-05-05 15:36 | 26.45887 | 51.27452 | 35754 ft | 441 kts | 285° |
| 2026-05-05 15:37 | 26.47965 | 51.20996 | 35753 ft | 441 kts | 284° |
| 2026-05-05 15:37 | 26.50010 | 51.14535 | 35775 ft | 441 kts | 284° |
| 2026-05-05 15:38 | 26.52044 | 51.08113 | 35760 ft | 441 kts | 284° |
| 2026-05-05 15:38 | 26.54098 | 51.01630 | 35755 ft | 441 kts | 284° |
| 2026-05-05 15:39 | 26.56143 | 50.95169 | 35751 ft | 441 kts | 284° |
| 2026-05-05 15:39 | 26.58174 | 50.88703 | 35749 ft | 441 kts | 284° |
| 2026-05-05 15:40 | 26.60147 | 50.82258 | 35747 ft | 441 kts | 284° |
| 2026-05-05 15:40 | 26.62131 | 50.75764 | 35769 ft | 441 kts | 283° |
| 2026-05-05 15:41 | 26.64117 | 50.69275 | 35756 ft | 441 kts | 283° |
| 2026-05-05 15:41 | 26.66054 | 50.62818 | 35746 ft | 440 kts | 283° |
| 2026-05-05 15:42 | 26.67986 | 50.56297 | 35742 ft | 440 kts | 283° |
| 2026-05-05 15:42 | 26.69917 | 50.49794 | 35745 ft | 440 kts | 283° |
| 2026-05-05 15:43 | 26.71711 | 50.43295 | 35750 ft | 438 kts | 281° |
| 2026-05-05 15:43 | 26.73362 | 50.36723 | 35751 ft | 439 kts | 281° |
| 2026-05-05 15:44 | 26.74996 | 50.30134 | 35737 ft | 436 kts | 277° |
| 2026-05-05 15:44 | 26.75836 | 50.23499 | 35742 ft | 431 kts | 270° |
| 2026-05-05 15:45 | 26.75927 | 50.16803 | 35752 ft | 429 kts | 267° |
| 2026-05-05 15:45 | 26.75970 | 50.10146 | 35734 ft | 429 kts | 268° |
| 2026-05-05 15:46 | 26.76028 | 50.03460 | 35727 ft | 429 kts | 268° |
| 2026-05-05 15:46 | 26.76088 | 49.96785 | 35707 ft | 429 kts | 268° |
| 2026-05-05 15:47 | 26.76137 | 49.90133 | 35721 ft | 429 kts | 267° |
| 2026-05-05 15:47 | 26.76176 | 49.83441 | 35712 ft | 429 kts | 267° |
| 2026-05-05 15:48 | 26.76213 | 49.76798 | 35707 ft | 429 kts | 267° |
| 2026-05-05 15:48 | 26.76248 | 49.70118 | 35688 ft | 429 kts | 267° |
| 2026-05-05 15:49 | 26.76281 | 49.63443 | 35698 ft | 428 kts | 267° |
| 2026-05-05 15:49 | 26.76311 | 49.56769 | 35702 ft | 428 kts | 267° |
| 2026-05-05 15:50 | 26.76345 | 49.50139 | 35683 ft | 428 kts | 268° |
| 2026-05-05 15:50 | 26.76378 | 49.43489 | 35705 ft | 428 kts | 267° |
| 2026-05-05 15:51 | 26.76407 | 49.36821 | 35708 ft | 429 kts | 267° |
| 2026-05-05 15:51 | 26.76439 | 49.30133 | 35687 ft | 429 kts | 267° |
| 2026-05-05 15:52 | 26.76470 | 49.23448 | 35705 ft | 429 kts | 267° |
| 2026-05-05 15:52 | 26.76498 | 49.16757 | 35711 ft | 430 kts | 267° |
| 2026-05-05 15:53 | 26.76522 | 49.10094 | 35721 ft | 430 kts | 267° |
| 2026-05-05 15:53 | 26.76543 | 49.03389 | 35712 ft | 430 kts | 267° |
| 2026-05-05 15:54 | 26.76560 | 48.96719 | 35717 ft | 431 kts | 267° |
| 2026-05-05 15:54 | 26.76575 | 48.90017 | 35716 ft | 431 kts | 267° |
| 2026-05-05 15:55 | 26.76586 | 48.83307 | 35713 ft | 431 kts | 267° |
| 2026-05-05 15:55 | 26.76595 | 48.76596 | 35720 ft | 431 kts | 267° |
| 2026-05-05 15:56 | 26.76599 | 48.69919 | 35718 ft | 431 kts | 266° |
| 2026-05-05 15:56 | 26.76449 | 48.63210 | 35766 ft | 430 kts | 265° |
| 2026-05-05 15:57 | 26.76230 | 48.56515 | 35736 ft | 430 kts | 265° |
| 2026-05-05 15:57 | 26.76029 | 48.49812 | 35726 ft | 430 kts | 265° |
| 2026-05-05 15:58 | 26.75838 | 48.43167 | 35747 ft | 429 kts | 265° |
| 2026-05-05 15:58 | 26.75677 | 48.37596 | 35730 ft | 429 kts | 265° |
| 2026-05-05 15:59 | 26.75486 | 48.30919 | 35736 ft | 429 kts | 265° |
| 2026-05-05 15:59 | 26.75311 | 48.24273 | 35733 ft | 428 kts | 265° |
| 2026-05-05 16:00 | 26.75132 | 48.17610 | 35726 ft | 427 kts | 265° |
| 2026-05-05 16:00 | 26.74949 | 48.10960 | 35746 ft | 427 kts | 265° |
| 2026-05-05 16:01 | 26.74763 | 48.04324 | 35757 ft | 427 kts | 265° |
| 2026-05-05 16:01 | 26.74574 | 47.97713 | 35748 ft | 426 kts | 265° |
| 2026-05-05 16:02 | 26.74381 | 47.91069 | 35756 ft | 426 kts | 265° |
| 2026-05-05 16:02 | 26.74469 | 47.84456 | 35761 ft | 428 kts | 269° |
| 2026-05-05 16:03 | 26.74828 | 47.77790 | 35762 ft | 428 kts | 269° |
| 2026-05-05 16:03 | 26.75167 | 47.71140 | 35779 ft | 428 kts | 269° |
| 2026-05-05 16:04 | 26.75495 | 47.64520 | 35769 ft | 428 kts | 269° |
| 2026-05-05 16:04 | 26.75822 | 47.57859 | 35774 ft | 428 kts | 269° |
| 2026-05-05 16:05 | 26.76147 | 47.51202 | 35781 ft | 427 kts | 269° |
| 2026-05-05 16:05 | 26.76467 | 47.44587 | 35784 ft | 427 kts | 269° |
| 2026-05-05 16:06 | 26.76814 | 47.37938 | 35789 ft | 428 kts | 271° |
| 2026-05-05 16:06 | 26.77738 | 47.31377 | 35794 ft | 430 kts | 275° |
| 2026-05-05 16:07 | 26.78772 | 47.24768 | 35804 ft | 430 kts | 275° |
| 2026-05-05 16:07 | 26.79786 | 47.18158 | 35800 ft | 430 kts | 275° |
| 2026-05-05 16:08 | 26.80791 | 47.11565 | 35795 ft | 430 kts | 275° |
| 2026-05-05 16:08 | 26.81795 | 47.04958 | 35806 ft | 430 kts | 275° |
| 2026-05-05 16:09 | 26.82787 | 46.98408 | 35805 ft | 430 kts | 275° |
| 2026-05-05 16:09 | 26.83785 | 46.91802 | 35807 ft | 429 kts | 275° |
| 2026-05-05 16:10 | 26.84780 | 46.85193 | 35819 ft | 429 kts | 274° |
| 2026-05-05 16:10 | 26.85764 | 46.78633 | 35814 ft | 430 kts | 274° |
| 2026-05-05 16:11 | 26.86752 | 46.72032 | 35813 ft | 429 kts | 274° |
| 2026-05-05 16:12 | 26.88718 | 46.58823 | 35815 ft | 429 kts | 274° |
| 2026-05-05 16:13 | 26.91154 | 46.42340 | 35829 ft | 429 kts | 274° |
| 2026-05-05 16:13 | 26.92122 | 46.35780 | 35840 ft | 429 kts | 274° |
| 2026-05-05 16:14 | 26.94089 | 46.22565 | 35830 ft | 429 kts | 274° |
| 2026-05-05 16:15 | 26.96034 | 46.09399 | 35822 ft | 429 kts | 274° |
| 2026-05-05 16:16 | 26.97965 | 45.96229 | 35829 ft | 429 kts | 274° |
| 2026-05-05 16:17 | 26.99409 | 45.86333 | 35833 ft | 429 kts | 274° |
| 2026-05-05 16:18 | 27.00846 | 45.76425 | 35832 ft | 429 kts | 274° |
| 2026-05-05 16:19 | 27.02276 | 45.66516 | 35839 ft | 428 kts | 274° |
| 2026-05-05 16:19 | 27.03695 | 45.56641 | 35841 ft | 429 kts | 273° |
| 2026-05-05 16:20 | 27.05544 | 45.43431 | 35852 ft | 428 kts | 272° |
| 2026-05-05 16:22 | 27.07388 | 45.26862 | 35857 ft | 428 kts | 271° |
| 2026-05-05 16:23 | 27.08854 | 45.13603 | 35861 ft | 429 kts | 271° |
| 2026-05-05 16:23 | 27.09952 | 45.03656 | 35862 ft | 429 kts | 271° |
| 2026-05-05 16:24 | 27.10683 | 44.96998 | 35882 ft | 430 kts | 271° |
| 2026-05-05 16:25 | 27.11774 | 44.87003 | 35863 ft | 430 kts | 271° |
| 2026-05-05 16:25 | 27.12853 | 44.77048 | 35871 ft | 429 kts | 271° |
| 2026-05-05 16:26 | 27.14287 | 44.63705 | 35871 ft | 429 kts | 271° |
| 2026-05-05 16:27 | 27.14993 | 44.57083 | 35847 ft | 430 kts | 271° |
| 2026-05-05 16:27 | 27.15701 | 44.50414 | 35870 ft | 429 kts | 271° |
| 2026-05-05 16:28 | 27.16405 | 44.43756 | 35878 ft | 429 kts | 271° |
| 2026-05-05 16:28 | 27.17105 | 44.37104 | 35880 ft | 429 kts | 271° |
| 2026-05-05 16:29 | 27.17794 | 44.30471 | 35880 ft | 429 kts | 271° |
| 2026-05-05 16:29 | 27.18480 | 44.23819 | 35887 ft | 429 kts | 271° |
| 2026-05-05 16:30 | 27.19164 | 44.17162 | 35891 ft | 428 kts | 271° |
| 2026-05-05 16:30 | 27.19841 | 44.10541 | 35888 ft | 429 kts | 270° |
| 2026-05-05 16:31 | 27.20521 | 44.03869 | 35892 ft | 428 kts | 270° |
| 2026-05-05 16:31 | 27.21192 | 43.97248 | 35898 ft | 428 kts | 270° |
| 2026-05-05 16:32 | 27.21865 | 43.90576 | 35903 ft | 428 kts | 270° |
| 2026-05-05 16:32 | 27.22532 | 43.83928 | 35875 ft | 428 kts | 271° |
| 2026-05-05 16:33 | 27.23192 | 43.77322 | 35906 ft | 428 kts | 270° |
| 2026-05-05 16:33 | 27.23855 | 43.70664 | 35914 ft | 428 kts | 270° |
| 2026-05-05 16:34 | 27.24515 | 43.64010 | 35917 ft | 428 kts | 270° |
| 2026-05-05 16:34 | 27.25170 | 43.57399 | 35929 ft | 428 kts | 270° |
| 2026-05-05 16:35 | 27.25827 | 43.50733 | 35926 ft | 428 kts | 270° |
| 2026-05-05 16:35 | 27.26479 | 43.44076 | 35926 ft | 428 kts | 270° |
| 2026-05-05 16:36 | 27.27126 | 43.37446 | 35930 ft | 428 kts | 270° |
| 2026-05-05 16:36 | 27.27774 | 43.30773 | 35938 ft | 428 kts | 270° |
| 2026-05-05 16:37 | 27.28418 | 43.24105 | 35925 ft | 429 kts | 270° |
| 2026-05-05 16:37 | 27.29054 | 43.17479 | 35941 ft | 429 kts | 270° |
| 2026-05-05 16:38 | 27.29693 | 43.10798 | 35951 ft | 429 kts | 270° |
| 2026-05-05 16:38 | 27.30327 | 43.04133 | 35947 ft | 428 kts | 270° |
| 2026-05-05 16:39 | 27.30958 | 42.97464 | 35955 ft | 428 kts | 270° |
| 2026-05-05 16:39 | 27.31581 | 42.90846 | 35943 ft | 428 kts | 270° |
| 2026-05-05 16:40 | 27.32206 | 42.84178 | 35949 ft | 428 kts | 270° |
| 2026-05-05 16:40 | 27.32826 | 42.77520 | 35955 ft | 428 kts | 270° |
| 2026-05-05 16:41 | 27.33444 | 42.70856 | 35950 ft | 428 kts | 270° |
| 2026-05-05 16:41 | 27.34058 | 42.64193 | 35955 ft | 428 kts | 270° |
| 2026-05-05 16:42 | 27.34667 | 42.57558 | 35953 ft | 428 kts | 270° |
| 2026-05-05 16:42 | 27.35276 | 42.50885 | 35967 ft | 428 kts | 270° |
| 2026-05-05 16:43 | 27.35878 | 42.44257 | 35971 ft | 428 kts | 270° |
| 2026-05-05 16:43 | 27.36477 | 42.37594 | 35975 ft | 428 kts | 270° |
| 2026-05-05 16:44 | 27.37068 | 42.30957 | 35982 ft | 428 kts | 270° |
| 2026-05-05 16:44 | 27.37660 | 42.24288 | 35960 ft | 427 kts | 270° |
| 2026-05-05 16:45 | 27.38149 | 42.18746 | 36007 ft | 427 kts | 270° |
| 2026-05-05 16:45 | 27.38829 | 42.10997 | 35981 ft | 427 kts | 270° |
| 2026-05-05 16:46 | 27.39313 | 42.05459 | 35976 ft | 427 kts | 270° |
| 2026-05-05 16:46 | 27.39892 | 41.98787 | 35977 ft | 427 kts | 270° |
| 2026-05-05 16:47 | 27.40464 | 41.92165 | 35983 ft | 427 kts | 270° |
| 2026-05-05 16:47 | 27.41039 | 41.85483 | 35982 ft | 427 kts | 270° |
| 2026-05-05 16:48 | 27.41604 | 41.78871 | 35982 ft | 427 kts | 270° |
| 2026-05-05 16:48 | 27.41950 | 41.72192 | 35929 ft | 422 kts | 261° |
| 2026-05-05 16:49 | 27.41587 | 41.68937 | 36040 ft | 416 kts | 257° |
| 2026-05-05 16:49 | 27.41031 | 41.65791 | 36132 ft | 413 kts | 254° |
| 2026-05-05 16:49 | 27.39168 | 41.59751 | 36267 ft | 406 kts | 245° |
| 2026-05-05 16:50 | 27.37988 | 41.56851 | 36377 ft | 404 kts | 245° |
| 2026-05-05 16:50 | 27.36819 | 41.53986 | 36516 ft | 402 kts | 245° |
| 2026-05-05 16:50 | 27.35657 | 41.51128 | 36636 ft | 399 kts | 245° |
| 2026-05-05 16:50 | 27.34523 | 41.48326 | 36779 ft | 396 kts | 245° |
| 2026-05-05 16:51 | 27.33388 | 41.45506 | 36914 ft | 393 kts | 245° |
| 2026-05-05 16:51 | 27.32263 | 41.42707 | 37051 ft | 390 kts | 245° |
| 2026-05-05 16:51 | 27.31153 | 41.39941 | 37194 ft | 387 kts | 245° |
| 2026-05-05 16:51 | 27.30045 | 41.37179 | 37326 ft | 384 kts | 245° |
| 2026-05-05 16:52 | 27.28948 | 41.34446 | 37490 ft | 381 kts | 245° |
| 2026-05-05 16:52 | 27.27873 | 41.31768 | 37591 ft | 377 kts | 245° |
| 2026-05-05 16:52 | 27.25711 | 41.26393 | 37564 ft | 379 kts | 245° |
| 2026-05-05 16:53 | 27.24620 | 41.23681 | 37454 ft | 381 kts | 245° |
| 2026-05-05 16:53 | 27.23532 | 41.20981 | 37445 ft | 380 kts | 245° |
| 2026-05-05 16:53 | 27.22442 | 41.18277 | 37549 ft | 378 kts | 245° |
| 2026-05-05 16:53 | 27.21356 | 41.15584 | 37590 ft | 377 kts | 245° |
| 2026-05-05 16:54 | 27.19196 | 41.10232 | 37533 ft | 379 kts | 245° |
| 2026-05-05 16:54 | 27.17021 | 41.04849 | 37597 ft | 377 kts | 245° |
| 2026-05-05 16:55 | 27.14837 | 40.99458 | 37363 ft | 381 kts | 245° |
| 2026-05-05 16:55 | 27.13726 | 40.96720 | 36929 ft | 390 kts | 245° |
| 2026-05-05 16:55 | 27.12578 | 40.93893 | 36319 ft | 402 kts | 245° |
| 2026-05-05 16:56 | 27.10256 | 40.88179 | 36041 ft | 410 kts | 245° |
| 2026-05-05 16:56 | 27.07874 | 40.82324 | 35968 ft | 412 kts | 245° |
| 2026-05-05 16:57 | 27.05485 | 40.76460 | 35968 ft | 414 kts | 245° |
| 2026-05-05 16:57 | 27.03085 | 40.70578 | 35942 ft | 415 kts | 245° |
| 2026-05-05 16:58 | 27.00689 | 40.64713 | 35944 ft | 415 kts | 245° |
| 2026-05-05 16:58 | 26.98279 | 40.58821 | 35951 ft | 416 kts | 245° |
| 2026-05-05 16:59 | 26.95876 | 40.52954 | 35945 ft | 416 kts | 245° |
| 2026-05-05 16:59 | 26.93452 | 40.47046 | 35964 ft | 416 kts | 245° |
| 2026-05-05 17:00 | 26.91040 | 40.41176 | 35952 ft | 417 kts | 245° |
| 2026-05-05 17:00 | 26.88608 | 40.35267 | 35953 ft | 417 kts | 245° |
| 2026-05-05 17:01 | 26.86171 | 40.29354 | 35946 ft | 417 kts | 245° |
| 2026-05-05 17:01 | 26.83750 | 40.23486 | 35957 ft | 418 kts | 244° |
| 2026-05-05 17:02 | 26.81308 | 40.17577 | 35950 ft | 418 kts | 244° |
| 2026-05-05 17:02 | 26.78861 | 40.11665 | 35946 ft | 418 kts | 244° |
| 2026-05-05 17:03 | 26.76419 | 40.05773 | 35947 ft | 418 kts | 244° |
| 2026-05-05 17:03 | 26.73967 | 39.99864 | 35960 ft | 419 kts | 244° |
| 2026-05-05 17:04 | 26.71510 | 39.93952 | 35949 ft | 419 kts | 244° |
| 2026-05-05 17:04 | 26.69057 | 39.88058 | 35950 ft | 419 kts | 244° |
| 2026-05-05 17:05 | 26.66591 | 39.82143 | 35948 ft | 420 kts | 244° |
| 2026-05-05 17:05 | 26.64120 | 39.76222 | 35940 ft | 419 kts | 244° |
| 2026-05-05 17:06 | 26.61648 | 39.70309 | 35943 ft | 420 kts | 244° |
| 2026-05-05 17:06 | 26.59183 | 39.64419 | 35946 ft | 420 kts | 244° |
| 2026-05-05 17:07 | 26.56703 | 39.58502 | 35954 ft | 421 kts | 244° |
| 2026-05-05 17:07 | 26.54213 | 39.52570 | 35958 ft | 422 kts | 244° |
| 2026-05-05 17:08 | 26.51718 | 39.46634 | 35925 ft | 422 kts | 244° |
| 2026-05-05 17:08 | 26.49232 | 39.40726 | 35941 ft | 422 kts | 244° |
| 2026-05-05 17:09 | 26.46732 | 39.34793 | 35969 ft | 422 kts | 244° |
| 2026-05-05 17:09 | 26.44561 | 39.28720 | 35958 ft | 424 kts | 251° |
| 2026-05-05 17:10 | 26.43131 | 39.22316 | 35958 ft | 427 kts | 256° |
| 2026-05-05 17:10 | 26.42415 | 39.15709 | 35960 ft | 429 kts | 261° |
| 2026-05-05 17:11 | 26.41904 | 39.09093 | 35963 ft | 430 kts | 261° |
| 2026-05-05 17:11 | 26.41376 | 39.02416 | 35944 ft | 430 kts | 261° |
| 2026-05-05 17:12 | 26.40830 | 38.95762 | 35947 ft | 430 kts | 261° |
| 2026-05-05 17:12 | 26.40278 | 38.89152 | 35980 ft | 430 kts | 261° |
| 2026-05-05 17:13 | 26.39717 | 38.82497 | 35966 ft | 431 kts | 261° |
| 2026-05-05 17:13 | 26.39154 | 38.75841 | 35952 ft | 431 kts | 261° |
| 2026-05-05 17:14 | 26.38586 | 38.69162 | 35948 ft | 431 kts | 261° |
| 2026-05-05 17:14 | 26.38019 | 38.62533 | 35960 ft | 432 kts | 261° |
| 2026-05-05 17:15 | 26.37445 | 38.55856 | 35947 ft | 432 kts | 261° |
| 2026-05-05 17:15 | 26.36868 | 38.49177 | 35948 ft | 432 kts | 260° |
| 2026-05-05 17:16 | 26.36292 | 38.42545 | 35930 ft | 432 kts | 260° |
| 2026-05-05 17:16 | 26.35708 | 38.35866 | 35939 ft | 432 kts | 260° |
| 2026-05-05 17:17 | 26.35126 | 38.29235 | 35936 ft | 432 kts | 260° |
| 2026-05-05 17:17 | 26.34536 | 38.22557 | 35936 ft | 432 kts | 260° |
| 2026-05-05 17:18 | 26.33928 | 38.15874 | 35951 ft | 432 kts | 260° |
| 2026-05-05 17:18 | 26.33319 | 38.09199 | 35936 ft | 432 kts | 260° |
| 2026-05-05 17:19 | 26.32709 | 38.02582 | 35930 ft | 432 kts | 260° |
| 2026-05-05 17:19 | 26.32093 | 37.95904 | 35942 ft | 431 kts | 260° |
| 2026-05-05 17:20 | 26.31476 | 37.89250 | 35927 ft | 431 kts | 260° |
| 2026-05-05 17:20 | 26.30860 | 37.82615 | 35924 ft | 430 kts | 260° |
| 2026-05-05 17:21 | 26.30243 | 37.76019 | 35933 ft | 430 kts | 260° |
| 2026-05-05 17:22 | 26.29317 | 37.66074 | 35949 ft | 430 kts | 260° |
| 2026-05-05 17:22 | 26.28697 | 37.59430 | 35962 ft | 430 kts | 260° |
| 2026-05-05 17:23 | 26.28078 | 37.52830 | 35961 ft | 431 kts | 260° |
| 2026-05-05 17:23 | 26.27447 | 37.46159 | 35977 ft | 432 kts | 260° |
| 2026-05-05 17:24 | 26.26818 | 37.39523 | 35957 ft | 433 kts | 260° |
| 2026-05-05 17:24 | 26.26180 | 37.32836 | 35952 ft | 434 kts | 260° |
| 2026-05-05 17:25 | 26.25538 | 37.26139 | 35930 ft | 434 kts | 261° |
| 2026-05-05 17:25 | 26.24895 | 37.19463 | 35950 ft | 434 kts | 260° |
| 2026-05-05 17:26 | 26.24247 | 37.12748 | 35941 ft | 435 kts | 260° |
| 2026-05-05 17:26 | 26.23594 | 37.06036 | 35939 ft | 436 kts | 260° |
| 2026-05-05 17:27 | 26.22941 | 36.99356 | 35938 ft | 436 kts | 260° |
| 2026-05-05 17:27 | 26.22280 | 36.92626 | 35935 ft | 436 kts | 260° |
| 2026-05-05 17:28 | 26.21621 | 36.85943 | 35929 ft | 436 kts | 260° |
| 2026-05-05 17:28 | 26.20951 | 36.79193 | 35915 ft | 437 kts | 260° |
| 2026-05-05 17:29 | 26.20286 | 36.72509 | 35936 ft | 437 kts | 260° |
| 2026-05-05 17:29 | 26.19612 | 36.65772 | 35904 ft | 437 kts | 260° |
| 2026-05-05 17:30 | 26.18936 | 36.59038 | 35928 ft | 437 kts | 260° |
| 2026-05-05 17:30 | 26.18677 | 36.52327 | 35914 ft | 443 kts | 275° |
| 2026-05-05 17:31 | 26.20861 | 36.45764 | 35924 ft | 462 kts | 292° |
| 2026-05-05 17:31 | 26.22760 | 36.42868 | 35890 ft | 476 kts | 305° |
| 2026-05-05 17:31 | 26.25093 | 36.40228 | 35932 ft | 478 kts | 306° |
| 2026-05-05 17:32 | 26.29820 | 36.34978 | 35937 ft | 480 kts | 306° |
| 2026-05-05 17:32 | 26.34493 | 36.29694 | 35922 ft | 480 kts | 305° |
| 2026-05-05 17:33 | 26.39153 | 36.24333 | 35944 ft | 480 kts | 305° |
| 2026-05-05 17:33 | 26.43777 | 36.18981 | 35931 ft | 481 kts | 305° |
| 2026-05-05 17:34 | 26.48425 | 36.13598 | 35920 ft | 482 kts | 305° |
| 2026-05-05 17:34 | 26.53101 | 36.08181 | 35927 ft | 482 kts | 305° |
| 2026-05-05 17:35 | 26.57738 | 36.02803 | 35928 ft | 483 kts | 305° |
| 2026-05-05 17:35 | 26.61616 | 35.98300 | 35927 ft | 483 kts | 305° |
| 2026-05-05 17:36 | 26.66284 | 35.92872 | 35963 ft | 483 kts | 305° |
| 2026-05-05 17:36 | 26.70926 | 35.87468 | 35937 ft | 484 kts | 305° |
| 2026-05-05 17:37 | 26.75593 | 35.82027 | 35934 ft | 484 kts | 305° |
| 2026-05-05 17:37 | 26.80261 | 35.76581 | 35931 ft | 484 kts | 305° |
| 2026-05-05 17:38 | 26.84897 | 35.71166 | 35932 ft | 484 kts | 305° |
| 2026-05-05 17:38 | 26.89562 | 35.65709 | 35932 ft | 484 kts | 305° |
| 2026-05-05 17:39 | 26.94233 | 35.60238 | 35932 ft | 484 kts | 305° |
| 2026-05-05 17:39 | 26.98863 | 35.54807 | 35938 ft | 484 kts | 305° |
| 2026-05-05 17:40 | 27.03509 | 35.49349 | 35984 ft | 483 kts | 305° |
| 2026-05-05 17:40 | 27.08167 | 35.43870 | 35948 ft | 484 kts | 305° |
| 2026-05-05 17:41 | 27.12792 | 35.38425 | 35930 ft | 483 kts | 305° |
| 2026-05-05 17:41 | 27.17431 | 35.32956 | 35931 ft | 483 kts | 305° |
| 2026-05-05 17:42 | 27.22040 | 35.27515 | 35936 ft | 482 kts | 305° |
| 2026-05-05 17:42 | 27.26654 | 35.22060 | 35954 ft | 481 kts | 305° |
| 2026-05-05 17:43 | 27.31267 | 35.16600 | 35960 ft | 480 kts | 305° |
| 2026-05-05 17:43 | 27.35840 | 35.11180 | 35938 ft | 480 kts | 305° |
| 2026-05-05 17:44 | 27.40436 | 35.05725 | 35979 ft | 480 kts | 305° |
| 2026-05-05 17:44 | 27.45031 | 35.00263 | 35954 ft | 480 kts | 305° |
| 2026-05-05 17:45 | 27.49622 | 34.94802 | 35953 ft | 479 kts | 306° |
| 2026-05-05 17:45 | 27.54327 | 34.89517 | 35946 ft | 482 kts | 309° |
| 2026-05-05 17:46 | 27.59246 | 34.84359 | 35943 ft | 482 kts | 309° |
| 2026-05-05 17:46 | 27.64161 | 34.79205 | 35950 ft | 481 kts | 309° |
| 2026-05-05 17:47 | 27.69029 | 34.74059 | 35950 ft | 482 kts | 309° |
| 2026-05-05 17:47 | 27.73923 | 34.68863 | 35954 ft | 483 kts | 309° |
| 2026-05-05 17:48 | 27.78829 | 34.63649 | 35965 ft | 484 kts | 309° |
| 2026-05-05 17:48 | 27.83711 | 34.58457 | 35968 ft | 484 kts | 309° |
| 2026-05-05 17:49 | 27.88615 | 34.53233 | 35965 ft | 484 kts | 309° |
| 2026-05-05 17:49 | 27.93528 | 34.47994 | 35967 ft | 484 kts | 309° |
| 2026-05-05 17:50 | 27.98404 | 34.42790 | 35968 ft | 484 kts | 309° |
| 2026-05-05 17:50 | 28.02886 | 34.37178 | 35980 ft | 476 kts | 302° |
| 2026-05-05 17:51 | 28.07025 | 34.31380 | 35971 ft | 475 kts | 302° |
| 2026-05-05 17:51 | 28.11198 | 34.25554 | 35978 ft | 475 kts | 302° |
| 2026-05-05 17:52 | 28.15359 | 34.19777 | 36015 ft | 475 kts | 303° |
| 2026-05-05 17:52 | 28.19546 | 34.13967 | 36004 ft | 475 kts | 303° |
| 2026-05-05 17:53 | 28.23703 | 34.08192 | 36019 ft | 475 kts | 303° |
| 2026-05-05 17:53 | 28.27886 | 34.02370 | 36013 ft | 475 kts | 303° |
| 2026-05-05 17:54 | 28.32060 | 33.96555 | 36021 ft | 474 kts | 303° |
| 2026-05-05 17:54 | 28.36226 | 33.90737 | 36015 ft | 475 kts | 303° |
| 2026-05-05 17:55 | 28.40375 | 33.84949 | 36047 ft | 473 kts | 303° |
| 2026-05-05 17:55 | 28.44524 | 33.79135 | 36032 ft | 472 kts | 303° |
| 2026-05-05 17:56 | 28.48661 | 33.73334 | 35987 ft | 470 kts | 303° |
| 2026-05-05 17:56 | 28.52776 | 33.67569 | 35996 ft | 469 kts | 303° |
| 2026-05-05 17:57 | 28.56871 | 33.61801 | 36060 ft | 467 kts | 303° |
| 2026-05-05 17:57 | 28.60951 | 33.56050 | 36048 ft | 470 kts | 303° |
| 2026-05-05 17:58 | 28.65066 | 33.50248 | 36042 ft | 471 kts | 303° |
| 2026-05-05 17:58 | 28.69173 | 33.44462 | 36037 ft | 472 kts | 303° |
| 2026-05-05 17:59 | 28.73301 | 33.38639 | 36050 ft | 472 kts | 303° |
| 2026-05-05 17:59 | 28.77431 | 33.32802 | 36045 ft | 472 kts | 303° |
| 2026-05-05 18:00 | 28.81532 | 33.26997 | 36038 ft | 471 kts | 303° |
| 2026-05-05 18:00 | 28.85613 | 33.21212 | 36045 ft | 470 kts | 302° |
| 2026-05-05 18:01 | 28.89712 | 33.15392 | 36047 ft | 470 kts | 303° |
| 2026-05-05 18:01 | 28.93805 | 33.09574 | 36040 ft | 469 kts | 303° |
| 2026-05-05 18:02 | 28.97885 | 33.03766 | 36040 ft | 468 kts | 303° |
| 2026-05-05 18:02 | 29.01932 | 32.97995 | 36040 ft | 467 kts | 303° |
| 2026-05-05 18:03 | 29.05994 | 32.92197 | 36038 ft | 466 kts | 303° |
| 2026-05-05 18:03 | 29.10034 | 32.86420 | 36048 ft | 467 kts | 303° |
| 2026-05-05 18:04 | 29.14096 | 32.80604 | 36041 ft | 467 kts | 303° |
| 2026-05-05 18:04 | 29.18138 | 32.74808 | 36037 ft | 467 kts | 303° |
| 2026-05-05 18:05 | 29.22201 | 32.68975 | 36042 ft | 467 kts | 303° |
| 2026-05-05 18:05 | 29.26257 | 32.63144 | 36047 ft | 467 kts | 303° |
| 2026-05-05 18:06 | 29.30308 | 32.57298 | 36053 ft | 467 kts | 302° |
| 2026-05-05 18:06 | 29.34303 | 32.51477 | 36056 ft | 467 kts | 302° |
| 2026-05-05 18:07 | 29.38315 | 32.45615 | 36050 ft | 466 kts | 302° |
| 2026-05-05 18:07 | 29.42316 | 32.39766 | 36051 ft | 465 kts | 302° |
| 2026-05-05 18:08 | 29.46283 | 32.33960 | 36062 ft | 464 kts | 303° |
| 2026-05-05 18:08 | 29.50271 | 32.28117 | 36070 ft | 463 kts | 302° |
| 2026-05-05 18:09 | 29.54216 | 32.22329 | 36056 ft | 462 kts | 303° |
| 2026-05-05 18:09 | 29.58171 | 32.16516 | 36065 ft | 461 kts | 302° |
| 2026-05-05 18:10 | 29.62131 | 32.10686 | 36068 ft | 462 kts | 302° |
| 2026-05-05 18:10 | 29.66068 | 32.04883 | 36079 ft | 463 kts | 303° |
| 2026-05-05 18:11 | 29.70034 | 31.99029 | 36073 ft | 463 kts | 303° |
| 2026-05-05 18:11 | 29.73997 | 31.93172 | 36068 ft | 464 kts | 303° |
| 2026-05-05 18:12 | 29.77948 | 31.87326 | 36075 ft | 464 kts | 303° |
| 2026-05-05 18:12 | 29.81828 | 31.81398 | 36073 ft | 462 kts | 301° |
| 2026-05-05 18:13 | 29.85611 | 31.75474 | 36077 ft | 461 kts | 302° |
| 2026-05-05 18:13 | 29.89433 | 31.69518 | 36072 ft | 459 kts | 302° |
| 2026-05-05 18:14 | 29.93238 | 31.63606 | 36063 ft | 458 kts | 302° |
| 2026-05-05 18:14 | 29.97011 | 31.57759 | 36071 ft | 456 kts | 302° |
| 2026-05-05 18:15 | 30.00798 | 31.51882 | 36087 ft | 456 kts | 302° |
| 2026-05-05 18:15 | 30.04589 | 31.45986 | 36084 ft | 457 kts | 302° |
| 2026-05-05 18:16 | 30.08407 | 31.40113 | 36066 ft | 459 kts | 304° |
| 2026-05-05 18:16 | 30.12840 | 31.34798 | 36088 ft | 464 kts | 312° |
| 2026-05-05 18:17 | 30.17609 | 31.29753 | 36077 ft | 464 kts | 312° |
| 2026-05-05 18:17 | 30.22361 | 31.24690 | 36077 ft | 463 kts | 311° |
| 2026-05-05 18:18 | 30.27059 | 31.19649 | 36076 ft | 463 kts | 312° |
| 2026-05-05 18:18 | 30.31773 | 31.14574 | 36080 ft | 462 kts | 312° |
| 2026-05-05 18:19 | 30.36404 | 31.09581 | 36085 ft | 461 kts | 312° |
| 2026-05-05 18:19 | 30.41093 | 31.04519 | 36086 ft | 460 kts | 311° |
| 2026-05-05 18:20 | 30.45778 | 30.99455 | 36088 ft | 459 kts | 311° |
| 2026-05-05 18:20 | 30.50450 | 30.94398 | 36136 ft | 459 kts | 312° |
| 2026-05-05 18:21 | 30.55098 | 30.89361 | 36095 ft | 457 kts | 312° |
| 2026-05-05 18:21 | 30.59718 | 30.84347 | 36087 ft | 456 kts | 312° |
| 2026-05-05 18:22 | 30.64351 | 30.79312 | 36101 ft | 456 kts | 312° |
| 2026-05-05 18:22 | 30.68211 | 30.75110 | 36099 ft | 457 kts | 312° |
| 2026-05-05 18:23 | 30.72858 | 30.70046 | 36099 ft | 458 kts | 312° |
| 2026-05-05 18:23 | 30.78270 | 30.64140 | 36099 ft | 459 kts | 312° |
| 2026-05-05 18:24 | 30.82173 | 30.59875 | 36099 ft | 459 kts | 312° |
| 2026-05-05 18:24 | 30.86811 | 30.54801 | 36105 ft | 460 kts | 312° |
| 2026-05-05 18:25 | 30.91466 | 30.49701 | 36095 ft | 459 kts | 311° |
| 2026-05-05 18:25 | 30.96123 | 30.44591 | 36097 ft | 458 kts | 311° |
| 2026-05-05 18:26 | 31.00733 | 30.39525 | 36101 ft | 457 kts | 312° |
| 2026-05-05 18:26 | 31.05358 | 30.34416 | 36098 ft | 455 kts | 309° |
| 2026-05-05 18:27 | 31.09036 | 30.28604 | 36104 ft | 445 kts | 296° |
| 2026-05-05 18:27 | 31.11524 | 30.22072 | 36102 ft | 440 kts | 285° |
| 2026-05-05 18:28 | 31.14257 | 30.11775 | 36104 ft | 442 kts | 285° |
| 2026-05-05 18:28 | 31.16108 | 30.04976 | 36101 ft | 443 kts | 286° |
| 2026-05-05 18:29 | 31.18352 | 29.98276 | 36101 ft | 445 kts | 301° |
| 2026-05-05 18:29 | 31.22554 | 29.92853 | 36101 ft | 456 kts | 317° |
| 2026-05-05 18:30 | 31.28072 | 29.89115 | 36109 ft | 465 kts | 327° |
| 2026-05-05 18:30 | 31.33850 | 29.85631 | 36104 ft | 466 kts | 327° |
| 2026-05-05 18:31 | 31.39570 | 29.82116 | 36123 ft | 466 kts | 327° |
| 2026-05-05 18:31 | 31.45296 | 29.78538 | 36112 ft | 467 kts | 327° |
| 2026-05-05 18:32 | 31.51018 | 29.74946 | 36102 ft | 466 kts | 327° |
| 2026-05-05 18:32 | 31.56748 | 29.71342 | 36117 ft | 465 kts | 327° |
| 2026-05-05 18:33 | 31.62457 | 29.67749 | 36100 ft | 464 kts | 327° |
| 2026-05-05 18:33 | 31.68108 | 29.64188 | 36101 ft | 462 kts | 327° |
| 2026-05-05 18:34 | 31.73738 | 29.60635 | 36115 ft | 461 kts | 327° |
| 2026-05-05 18:34 | 31.79384 | 29.57066 | 36100 ft | 460 kts | 327° |
| 2026-05-05 18:35 | 31.85035 | 29.53489 | 36112 ft | 461 kts | 327° |
| 2026-05-05 18:35 | 31.90647 | 29.49931 | 36111 ft | 461 kts | 327° |
| 2026-05-05 18:36 | 31.96292 | 29.46349 | 36106 ft | 461 kts | 327° |
| 2026-05-05 18:36 | 32.01951 | 29.42752 | 36105 ft | 460 kts | 327° |
| 2026-05-05 18:37 | 32.07550 | 29.39175 | 36103 ft | 460 kts | 327° |
| 2026-05-05 18:37 | 32.13189 | 29.35565 | 36123 ft | 460 kts | 328° |
| 2026-05-05 18:38 | 32.18834 | 29.31948 | 36107 ft | 460 kts | 328° |
| 2026-05-05 18:38 | 32.24428 | 29.28362 | 36102 ft | 460 kts | 328° |
| 2026-05-05 18:39 | 32.30059 | 29.24755 | 36113 ft | 460 kts | 328° |
| 2026-05-05 18:39 | 32.35691 | 29.21142 | 36105 ft | 459 kts | 328° |
| 2026-05-05 18:40 | 32.41306 | 29.17535 | 36101 ft | 459 kts | 328° |
| 2026-05-05 18:40 | 32.46892 | 29.13941 | 36100 ft | 458 kts | 328° |
| 2026-05-05 18:41 | 32.52501 | 29.10325 | 36103 ft | 458 kts | 328° |
| 2026-05-05 18:41 | 32.58061 | 29.06736 | 36103 ft | 457 kts | 328° |
| 2026-05-05 18:42 | 32.63654 | 29.03120 | 36100 ft | 457 kts | 328° |
| 2026-05-05 18:42 | 32.69248 | 28.99499 | 36117 ft | 457 kts | 328° |
| 2026-05-05 18:43 | 32.74842 | 28.95872 | 36107 ft | 457 kts | 328° |
| 2026-05-05 18:43 | 32.80397 | 28.92267 | 36101 ft | 456 kts | 328° |
| 2026-05-05 18:44 | 32.85972 | 28.88642 | 36095 ft | 455 kts | 328° |
| 2026-05-05 18:44 | 32.91491 | 28.85049 | 36099 ft | 454 kts | 328° |
| 2026-05-05 18:45 | 32.97043 | 28.81429 | 36122 ft | 454 kts | 328° |
| 2026-05-05 18:45 | 33.02575 | 28.77816 | 36108 ft | 453 kts | 328° |
| 2026-05-05 18:46 | 33.08067 | 28.74226 | 36110 ft | 452 kts | 328° |
| 2026-05-05 18:46 | 33.13585 | 28.70612 | 36087 ft | 452 kts | 328° |
| 2026-05-05 18:47 | 33.19111 | 28.66988 | 36085 ft | 452 kts | 328° |
| 2026-05-05 18:47 | 33.24599 | 28.63381 | 36120 ft | 452 kts | 328° |
| 2026-05-05 18:48 | 33.30120 | 28.59752 | 36095 ft | 452 kts | 328° |
| 2026-05-05 18:48 | 33.35646 | 28.56113 | 36084 ft | 452 kts | 328° |
| 2026-05-05 18:49 | 33.41121 | 28.52502 | 36089 ft | 451 kts | 328° |
| 2026-05-05 18:49 | 33.46589 | 28.48889 | 36086 ft | 450 kts | 328° |
| 2026-05-05 18:50 | 33.52077 | 28.45259 | 36108 ft | 449 kts | 328° |
| 2026-05-05 18:50 | 33.57529 | 28.41646 | 36095 ft | 449 kts | 328° |
| 2026-05-05 18:51 | 33.62998 | 28.38018 | 36086 ft | 448 kts | 328° |
| 2026-05-05 18:51 | 33.68463 | 28.34386 | 36092 ft | 447 kts | 328° |
| 2026-05-05 18:52 | 33.73879 | 28.30782 | 36083 ft | 446 kts | 328° |
| 2026-05-05 18:52 | 33.79316 | 28.27159 | 36087 ft | 446 kts | 328° |
| 2026-05-05 18:53 | 33.84701 | 28.23545 | 36084 ft | 445 kts | 328° |
| 2026-05-05 18:53 | 33.90096 | 28.19898 | 36082 ft | 444 kts | 328° |
| 2026-05-05 18:54 | 33.95473 | 28.16258 | 36080 ft | 443 kts | 328° |
| 2026-05-05 18:54 | 34.00843 | 28.12619 | 36083 ft | 443 kts | 328° |
| 2026-05-05 18:55 | 34.06209 | 28.08980 | 36081 ft | 444 kts | 328° |
| 2026-05-05 18:55 | 34.11617 | 28.05306 | 36077 ft | 445 kts | 328° |
| 2026-05-05 18:56 | 34.16983 | 28.01656 | 36078 ft | 445 kts | 328° |
| 2026-05-05 18:56 | 34.22393 | 27.97971 | 36076 ft | 445 kts | 328° |
| 2026-05-05 18:57 | 34.27794 | 27.94286 | 36073 ft | 445 kts | 328° |
| 2026-05-05 18:57 | 34.33144 | 27.90631 | 36073 ft | 444 kts | 328° |
| 2026-05-05 18:58 | 34.38536 | 27.86941 | 36080 ft | 444 kts | 328° |
| 2026-05-05 18:58 | 34.43892 | 27.83269 | 36073 ft | 443 kts | 328° |
| 2026-05-05 18:59 | 34.49274 | 27.79576 | 36073 ft | 442 kts | 328° |
| 2026-05-05 18:59 | 34.54602 | 27.75913 | 36072 ft | 442 kts | 328° |
| 2026-05-05 19:00 | 34.59954 | 27.72220 | 36071 ft | 441 kts | 328° |
| 2026-05-05 19:00 | 34.65285 | 27.68531 | 36093 ft | 440 kts | 328° |
| 2026-05-05 19:01 | 34.70582 | 27.64861 | 36070 ft | 440 kts | 328° |
| 2026-05-05 19:01 | 34.75871 | 27.61192 | 36067 ft | 439 kts | 328° |
| 2026-05-05 19:02 | 34.81201 | 27.57489 | 36069 ft | 439 kts | 328° |
| 2026-05-05 19:02 | 34.86484 | 27.53812 | 36070 ft | 440 kts | 328° |
| 2026-05-05 19:03 | 34.91815 | 27.50097 | 36083 ft | 441 kts | 328° |
| 2026-05-05 19:03 | 34.97159 | 27.46367 | 36062 ft | 442 kts | 328° |
| 2026-05-05 19:04 | 35.02465 | 27.42658 | 36067 ft | 442 kts | 328° |
| 2026-05-05 19:04 | 35.07810 | 27.38917 | 36065 ft | 442 kts | 328° |
| 2026-05-05 19:05 | 35.13146 | 27.35176 | 36065 ft | 442 kts | 328° |
| 2026-05-05 19:05 | 35.18496 | 27.31419 | 36065 ft | 442 kts | 328° |
| 2026-05-05 19:06 | 35.23813 | 27.27679 | 36065 ft | 442 kts | 328° |
| 2026-05-05 19:06 | 35.29153 | 27.23918 | 36065 ft | 442 kts | 328° |
| 2026-05-05 19:07 | 35.33580 | 27.20794 | 36067 ft | 441 kts | 328° |
| 2026-05-05 19:07 | 35.39783 | 27.16412 | 36078 ft | 441 kts | 328° |
| 2026-05-05 19:08 | 35.45110 | 27.12695 | 36084 ft | 441 kts | 329° |
| 2026-05-05 19:08 | 35.49475 | 27.09491 | 36068 ft | 438 kts | 322° |
| 2026-05-05 19:09 | 35.55053 | 27.04126 | 36074 ft | 437 kts | 320° |
| 2026-05-05 19:09 | 35.59845 | 26.99531 | 36075 ft | 436 kts | 321° |
| 2026-05-05 19:10 | 35.64618 | 26.94971 | 36073 ft | 436 kts | 321° |
| 2026-05-05 19:10 | 35.68603 | 26.91163 | 36073 ft | 436 kts | 321° |
| 2026-05-05 19:11 | 35.73406 | 26.86567 | 36063 ft | 437 kts | 321° |
| 2026-05-05 19:11 | 35.78186 | 26.81984 | 36078 ft | 438 kts | 321° |
| 2026-05-05 19:12 | 35.83011 | 26.77352 | 36075 ft | 439 kts | 321° |
| 2026-05-05 19:12 | 35.87853 | 26.72695 | 36074 ft | 440 kts | 321° |
| 2026-05-05 19:13 | 35.92661 | 26.68063 | 36074 ft | 441 kts | 321° |
| 2026-05-05 19:13 | 35.97493 | 26.63402 | 36074 ft | 441 kts | 321° |
| 2026-05-05 19:14 | 36.02326 | 26.58731 | 36073 ft | 440 kts | 321° |
| 2026-05-05 19:14 | 36.07157 | 26.54056 | 36078 ft | 440 kts | 321° |
| 2026-05-05 19:15 | 36.11947 | 26.49412 | 36075 ft | 440 kts | 321° |
| 2026-05-05 19:15 | 36.16754 | 26.44745 | 36076 ft | 439 kts | 321° |
| 2026-05-05 19:16 | 36.21557 | 26.40074 | 36078 ft | 438 kts | 321° |
| 2026-05-05 19:16 | 36.26350 | 26.35405 | 36075 ft | 437 kts | 321° |
| 2026-05-05 19:17 | 36.31113 | 26.30757 | 36053 ft | 437 kts | 321° |
| 2026-05-05 19:17 | 36.35886 | 26.26093 | 36091 ft | 436 kts | 321° |
| 2026-05-05 19:18 | 36.38260 | 26.23771 | 36291 ft | 432 kts | 321° |
| 2026-05-05 19:18 | 36.40618 | 26.21462 | 36525 ft | 429 kts | 321° |
| 2026-05-05 19:18 | 36.42952 | 26.19174 | 36732 ft | 426 kts | 321° |
| 2026-05-05 19:18 | 36.45272 | 26.16900 | 36940 ft | 423 kts | 321° |
| 2026-05-05 19:19 | 36.49881 | 26.12374 | 37036 ft | 425 kts | 321° |
| 2026-05-05 19:19 | 36.54510 | 26.07821 | 37346 ft | 421 kts | 321° |
| 2026-05-05 19:20 | 36.56798 | 26.05569 | 37560 ft | 417 kts | 321° |
| 2026-05-05 19:20 | 36.59047 | 26.03354 | 37776 ft | 414 kts | 321° |
| 2026-05-05 19:20 | 36.61296 | 26.01136 | 37996 ft | 411 kts | 321° |
| 2026-05-05 19:20 | 36.63534 | 25.98927 | 38045 ft | 412 kts | 321° |
| 2026-05-05 19:21 | 36.68039 | 25.94475 | 38058 ft | 414 kts | 321° |
| 2026-05-05 19:21 | 36.72562 | 25.89998 | 38073 ft | 415 kts | 321° |
| 2026-05-05 19:22 | 36.77075 | 25.85526 | 38074 ft | 417 kts | 321° |
| 2026-05-05 19:22 | 36.81630 | 25.81006 | 38080 ft | 419 kts | 321° |
| 2026-05-05 19:23 | 36.86197 | 25.76465 | 38065 ft | 420 kts | 321° |
| 2026-05-05 19:23 | 36.90785 | 25.71897 | 38087 ft | 422 kts | 321° |
| 2026-05-05 19:24 | 36.95364 | 25.67331 | 38077 ft | 424 kts | 321° |
| 2026-05-05 19:24 | 36.99987 | 25.62713 | 38066 ft | 425 kts | 321° |
| 2026-05-05 19:25 | 37.04610 | 25.58087 | 38063 ft | 425 kts | 321° |
| 2026-05-05 19:25 | 37.09225 | 25.53463 | 38066 ft | 426 kts | 321° |
| 2026-05-05 19:26 | 37.13852 | 25.48819 | 38070 ft | 426 kts | 321° |
| 2026-05-05 19:26 | 37.18468 | 25.44178 | 38073 ft | 428 kts | 321° |
| 2026-05-05 19:27 | 37.23128 | 25.39487 | 38073 ft | 429 kts | 321° |
| 2026-05-05 19:27 | 37.27788 | 25.34786 | 38076 ft | 429 kts | 321° |
| 2026-05-05 19:28 | 37.32453 | 25.30073 | 38065 ft | 429 kts | 320° |
| 2026-05-05 19:28 | 37.37083 | 25.25388 | 38063 ft | 430 kts | 320° |
| 2026-05-05 19:29 | 37.41742 | 25.20665 | 38074 ft | 430 kts | 320° |
| 2026-05-05 19:29 | 37.46402 | 25.15934 | 38065 ft | 430 kts | 320° |
| 2026-05-05 19:30 | 37.51038 | 25.11220 | 38077 ft | 430 kts | 320° |
| 2026-05-05 19:30 | 37.55715 | 25.06456 | 38074 ft | 430 kts | 320° |
| 2026-05-05 19:31 | 37.60345 | 25.01732 | 38072 ft | 431 kts | 320° |
| 2026-05-05 19:31 | 37.65003 | 24.96972 | 38071 ft | 430 kts | 320° |
| 2026-05-05 19:32 | 37.69657 | 24.92208 | 38074 ft | 430 kts | 320° |
| 2026-05-05 19:32 | 37.74308 | 24.87438 | 38073 ft | 430 kts | 320° |
| 2026-05-05 19:33 | 37.78960 | 24.82660 | 38071 ft | 431 kts | 320° |
| 2026-05-05 19:33 | 37.83583 | 24.77903 | 38064 ft | 431 kts | 320° |
| 2026-05-05 19:34 | 37.88244 | 24.73100 | 38065 ft | 431 kts | 320° |
| 2026-05-05 19:35 | 37.95200 | 24.65917 | 38067 ft | 432 kts | 320° |
| 2026-05-05 19:35 | 37.99866 | 24.61089 | 38074 ft | 431 kts | 320° |
| 2026-05-05 19:36 | 38.04499 | 24.56285 | 38070 ft | 432 kts | 320° |
| 2026-05-05 19:36 | 38.09158 | 24.51448 | 38071 ft | 432 kts | 320° |
| 2026-05-05 19:37 | 38.13790 | 24.46630 | 38071 ft | 433 kts | 320° |
| 2026-05-05 19:37 | 38.18458 | 24.41766 | 38065 ft | 433 kts | 320° |
| 2026-05-05 19:38 | 38.23093 | 24.36928 | 38062 ft | 432 kts | 319° |
| 2026-05-05 19:38 | 38.27748 | 24.32061 | 38071 ft | 432 kts | 319° |
| 2026-05-05 19:39 | 38.32398 | 24.27191 | 38060 ft | 432 kts | 319° |
| 2026-05-05 19:39 | 38.37017 | 24.22345 | 38071 ft | 433 kts | 319° |
| 2026-05-05 19:40 | 38.41663 | 24.17463 | 38066 ft | 433 kts | 319° |
| 2026-05-05 19:40 | 38.46321 | 24.12559 | 38076 ft | 433 kts | 319° |
| 2026-05-05 19:41 | 38.50936 | 24.07693 | 38069 ft | 433 kts | 319° |
| 2026-05-05 19:41 | 38.55586 | 24.02780 | 38061 ft | 433 kts | 319° |
| 2026-05-05 19:42 | 38.60244 | 23.97850 | 38068 ft | 434 kts | 319° |
| 2026-05-05 19:42 | 38.64870 | 23.92947 | 38061 ft | 435 kts | 319° |
| 2026-05-05 19:43 | 38.69541 | 23.87989 | 38064 ft | 435 kts | 319° |
| 2026-05-05 19:43 | 38.74185 | 23.83049 | 38068 ft | 436 kts | 319° |
| 2026-05-05 19:44 | 38.78852 | 23.78076 | 38053 ft | 436 kts | 319° |
| 2026-05-05 19:44 | 38.83517 | 23.73096 | 38047 ft | 436 kts | 319° |
| 2026-05-05 19:45 | 38.88166 | 23.68124 | 38055 ft | 437 kts | 319° |
| 2026-05-05 19:45 | 38.92854 | 23.63102 | 38046 ft | 438 kts | 319° |
| 2026-05-05 19:46 | 38.97512 | 23.58105 | 38035 ft | 438 kts | 319° |
| 2026-05-05 19:46 | 39.02199 | 23.53066 | 38030 ft | 439 kts | 319° |
| 2026-05-05 19:47 | 39.06895 | 23.48009 | 38025 ft | 439 kts | 319° |
| 2026-05-05 19:47 | 39.11558 | 23.42977 | 38050 ft | 440 kts | 319° |
| 2026-05-05 19:48 | 39.16256 | 23.37898 | 38045 ft | 440 kts | 320° |
| 2026-05-05 19:48 | 39.20962 | 23.32803 | 38041 ft | 441 kts | 320° |
| 2026-05-05 19:49 | 39.25635 | 23.27735 | 38038 ft | 441 kts | 320° |
| 2026-05-05 19:49 | 39.30341 | 23.22620 | 38034 ft | 441 kts | 319° |
| 2026-05-05 19:50 | 39.35023 | 23.17524 | 38031 ft | 442 kts | 319° |
| 2026-05-05 19:50 | 39.39727 | 23.12393 | 38044 ft | 442 kts | 319° |
| 2026-05-05 19:51 | 39.44408 | 23.07276 | 38013 ft | 442 kts | 320° |
| 2026-05-05 19:51 | 39.49108 | 23.02132 | 38035 ft | 442 kts | 320° |
| 2026-05-05 19:52 | 39.53790 | 22.96999 | 38035 ft | 443 kts | 320° |
| 2026-05-05 19:52 | 39.58496 | 22.91828 | 38039 ft | 443 kts | 320° |
| 2026-05-05 19:53 | 39.63215 | 22.86634 | 38036 ft | 443 kts | 320° |
| 2026-05-05 19:53 | 39.67894 | 22.81473 | 38049 ft | 443 kts | 320° |
| 2026-05-05 19:54 | 39.72600 | 22.76273 | 38021 ft | 444 kts | 320° |
| 2026-05-05 19:54 | 39.77266 | 22.71106 | 38042 ft | 443 kts | 320° |
| 2026-05-05 19:55 | 39.81969 | 22.65892 | 38050 ft | 444 kts | 320° |
| 2026-05-05 19:55 | 39.86675 | 22.60666 | 38021 ft | 444 kts | 320° |
| 2026-05-05 19:56 | 39.91355 | 22.55458 | 38030 ft | 445 kts | 320° |
| 2026-05-05 19:56 | 39.96073 | 22.50197 | 38069 ft | 445 kts | 320° |
| 2026-05-05 19:57 | 40.00758 | 22.44961 | 38031 ft | 445 kts | 320° |